Nocona, Texas
Current Conditions -  °F | °C
As of 10:55 AM on Thursday 23 Oct 2014 (Local Time) from K0F2 Reporting Station
Clear Clear  
Wind Chill: 71°   Ceiling: Unl
Heat Index: 71°   Visibility: 10mi
Dew Point: 56°   Wind: 12mph
Humidity: 59%   Direction: 160°SSE
Pressure: 30.16"   Gusts: 17mph
Location:  33.79°N, 97.73°W
Report Text: K0F2 231555Z AUTO 16010G15KT 10SM CLR 22/14 A3016 RMK AO2 T02190135
Loading
Personal Weather Stations






























Interactive Weather Map
Tropical Storm Tracking
New forecast layout! Learn more

10-Day Weather Forecast

Advertisements
Track Severe Weather on mobile